createdAt,value
2023-04-30T00:00:31.462Z,99515.81
2023-04-30T00:02:59.241Z,99522.06
2023-04-30T00:05:26.722Z,99519.59
2023-04-30T00:07:54.166Z,99524.78
2023-04-30T00:10:21.831Z,99519.59
2023-04-30T00:12:49.259Z,99520.66
2023-04-30T00:15:16.759Z,99523.38
2023-04-30T00:17:44.468Z,99523.38
2023-04-30T00:20:12.467Z,99517.94
2023-04-30T00:22:39.910Z,99525.03
2023-04-30T00:25:07.812Z,99529.41
2023-04-30T00:27:35.196Z,99521.25
2023-04-30T00:30:02.792Z,99521.47
2023-04-30T00:32:32.187Z,99519.34
2023-04-30T00:34:59.626Z,99522.06
2023-04-30T00:37:27.058Z,99523.13
2023-04-30T00:39:54.998Z,99527.50
2023-04-30T00:42:22.585Z,99531.91
2023-04-30T00:44:49.990Z,99521.47
2023-04-30T00:47:17.920Z,99525.84
2023-04-30T00:49:45.314Z,99518.75
2023-04-30T00:52:13.265Z,99521.47
2023-04-30T00:54:41.457Z,99512.25
2023-04-30T00:57:09.869Z,99512.25
2023-04-30T00:59:37.291Z,99511.44
2023-04-30T01:02:05.119Z,99507.88
2023-04-30T01:04:33.553Z,99507.06
2023-04-30T01:07:02.241Z,99508.13
2023-04-30T01:09:30.031Z,99506.44
2023-04-30T01:12:25.977Z,99515.22
2023-04-30T01:14:58.956Z,99507.06
2023-04-30T01:17:35.488Z,99515.22
2023-04-30T01:20:03.256Z,99508.94
2023-04-30T01:22:37.286Z,99510.84
2023-04-30T01:25:32.990Z,99508.13
2023-04-30T01:28:03.936Z,99509.53
2023-04-30T01:30:32.008Z,99504.78
2023-04-30T01:32:59.635Z,99512.94
2023-04-30T01:36:02.573Z,99514.59
2023-04-30T01:38:45.436Z,99515.22
2023-04-30T01:41:21.551Z,99512.50
2023-04-30T01:43:59.364Z,99511.88
2023-04-30T01:46:30.926Z,99507.50
2023-04-30T01:49:02.224Z,99514.59
2023-04-30T01:51:42.753Z,99518.13
2023-04-30T01:54:18.175Z,99517.94
2023-04-30T01:56:49.820Z,99518.38
2023-04-30T01:59:17.603Z,99516.47
2023-04-30T02:01:45.159Z,99524.44
2023-04-30T02:04:12.916Z,99529.03
2023-04-30T02:06:41.748Z,99522.75
2023-04-30T02:09:10.692Z,99522.75
2023-04-30T02:11:38.468Z,99525.47
2023-04-30T02:14:06.251Z,99519.00
2023-04-30T02:16:33.799Z,99520.84
2023-04-30T02:19:02.054Z,99521.72
2023-04-30T02:21:29.437Z,99527.38
2023-04-30T02:23:56.894Z,99523.56
2023-04-30T02:26:24.632Z,99521.94
2023-04-30T02:28:52.124Z,99519.19
2023-04-30T02:31:19.623Z,99529.03
2023-04-30T02:33:47.369Z,99522.53
2023-04-30T02:36:14.754Z,99520.66
2023-04-30T02:38:42.233Z,99527.75
2023-04-30T02:41:09.867Z,99534.84
2023-04-30T02:43:37.344Z,99534.84
2023-04-30T02:46:04.801Z,99532.12
2023-04-30T02:48:32.549Z,99528.56
2023-04-30T02:51:00.067Z,99529.63
2023-04-30T02:53:27.495Z,99531.53
2023-04-30T02:55:55.180Z,99536.72
2023-04-30T02:58:22.581Z,99539.69
2023-04-30T03:00:50.760Z,99542.16
2023-04-30T03:03:18.556Z,99534.25
2023-04-30T03:05:46.080Z,99550.56
2023-04-30T03:08:13.552Z,99545.13
2023-04-30T03:10:41.395Z,99537.78
2023-04-30T03:13:08.887Z,99538.88
2023-04-30T03:15:36.271Z,99545.13
2023-04-30T03:18:04.410Z,99541.59
2023-04-30T03:20:31.875Z,99534.25
2023-04-30T03:22:59.290Z,99536.97
2023-04-30T03:25:26.937Z,99544.06
2023-04-30T03:27:54.386Z,99543.25
2023-04-30T03:30:21.802Z,99548.69
2023-04-30T03:32:49.519Z,99546.53
2023-04-30T03:35:17.407Z,99544.66
2023-04-30T03:37:44.832Z,99540.28
2023-04-30T03:40:13.178Z,99544.91
2023-04-30T03:42:40.629Z,99547.62
2023-04-30T03:45:08.304Z,99547.62
2023-04-30T03:47:36.112Z,99542.41
2023-04-30T03:50:04.096Z,99549.50
2023-04-30T03:52:31.575Z,99553.28
2023-04-30T03:54:59.816Z,99539.69
2023-04-30T03:57:27.246Z,99547.84
2023-04-30T03:59:54.901Z,99551.41
2023-04-30T04:02:23.154Z,99543.25
2023-04-30T04:04:51.923Z,99550.34
2023-04-30T04:07:19.374Z,99551.63
2023-04-30T04:09:47.011Z,99561.44
2023-04-30T04:12:14.681Z,99567.97
2023-04-30T04:14:42.117Z,99570.44
2023-04-30T04:17:09.566Z,99576.94
2023-04-30T04:19:46.549Z,99576.94
2023-04-30T04:22:16.142Z,99580.25
2023-04-30T04:24:44.361Z,99584.28
2023-04-30T04:27:12.228Z,99579.88
2023-04-30T04:29:39.725Z,99580.09
2023-04-30T04:32:07.990Z,99582.00
2023-04-30T04:34:36.049Z,99582.00
2023-04-30T04:37:03.482Z,99595.59
2023-04-30T04:39:31.314Z,99598.09
2023-04-30T04:41:58.875Z,99594.53
2023-04-30T04:44:27.232Z,99597.25
2023-04-30T04:46:56.865Z,99606.25
2023-04-30T04:49:24.426Z,99604.59
2023-04-30T04:51:52.514Z,99609.19
2023-04-30T04:54:20.179Z,99611.91
2023-04-30T04:56:47.783Z,99614.63
2023-04-30T04:59:17.495Z,99619.00
2023-04-30T05:01:45.745Z,99621.97
2023-04-30T05:04:14.109Z,99619.00
2023-04-30T05:06:42.709Z,99625.28
2023-04-30T05:09:10.550Z,99630.72
2023-04-30T05:11:38.341Z,99631.56
2023-04-30T05:14:05.960Z,99633.44
2023-04-30T05:16:33.755Z,99633.44
2023-04-30T05:19:01.209Z,99637.00
2023-04-30T05:21:29.846Z,99640.78
2023-04-30T05:23:57.763Z,99641.59
2023-04-30T05:26:25.221Z,99647.88
2023-04-30T05:28:52.623Z,99645.97
2023-04-30T05:31:21.095Z,99655.00
2023-04-30T05:33:48.771Z,99650.37
2023-04-30T05:36:16.236Z,99651.22
2023-04-30T05:38:44.052Z,99661.25
2023-04-30T05:41:12.469Z,99661.25
2023-04-30T05:43:39.949Z,99659.56
2023-04-30T05:46:07.713Z,99660.44
2023-04-30T05:48:35.272Z,99665.87
2023-04-30T05:51:02.981Z,99671.31
2023-04-30T05:53:30.815Z,99665.87
2023-04-30T05:55:58.312Z,99667.53
2023-04-30T05:58:25.925Z,99667.53
2023-04-30T06:00:53.658Z,99662.09
2023-04-30T06:03:21.711Z,99662.09
2023-04-30T06:05:49.280Z,99670.03
2023-04-30T06:08:16.796Z,99662.69
2023-04-30T06:10:44.786Z,99670.84
2023-04-30T06:13:12.226Z,99670.84
2023-04-30T06:15:39.610Z,99662.69
2023-04-30T06:18:07.595Z,99668.97
2023-04-30T06:20:35.098Z,99662.47
2023-04-30T06:23:03.922Z,99664.34
2023-04-30T06:25:32.471Z,99666.22
2023-04-30T06:27:59.797Z,99661.34
2023-04-30T06:30:27.538Z,99664.97
2023-04-30T06:32:55.708Z,99658.91
2023-04-30T06:35:23.306Z,99651.59
2023-04-30T06:37:50.726Z,99655.16
2023-04-30T06:40:18.481Z,99657.03
2023-04-30T06:42:47.463Z,99660.59
2023-04-30T06:45:15.297Z,99660.34
2023-04-30T06:47:43.340Z,99663.06
2023-04-30T06:50:11.026Z,99662.00
2023-04-30T06:52:38.733Z,99655.75
2023-04-30T06:55:06.785Z,99662.84
2023-04-30T06:57:34.275Z,99662.62
2023-04-30T07:00:02.285Z,99670.56
2023-04-30T07:05:16.169Z,99672.87
2023-04-30T07:07:43.869Z,99661.12
2023-04-30T07:10:11.502Z,99673.69
2023-04-30T07:12:38.954Z,99668.03
2023-04-30T07:15:07.182Z,99666.75
2023-04-30T07:17:35.286Z,99668.16
2023-04-30T07:20:04.583Z,99663.78
2023-04-30T07:22:32.375Z,99661.06
2023-04-30T07:25:00.674Z,99664.38
2023-04-30T07:27:28.359Z,99653.28
2023-04-30T07:29:56.567Z,99662.28
2023-04-30T07:32:27.177Z,99651.41
2023-04-30T07:34:54.675Z,99656.84
2023-04-30T07:37:22.357Z,99667.50
2023-04-30T07:39:49.748Z,99665.00
2023-04-30T07:42:17.113Z,99666.06
2023-04-30T07:44:44.822Z,99667.72
2023-04-30T07:47:12.277Z,99671.50
2023-04-30T07:49:39.696Z,99666.06
2023-04-30T07:52:11.011Z,99673.63
2023-04-30T07:54:40.089Z,99673.37
2023-04-30T07:57:07.872Z,99679.69
2023-04-30T07:59:35.412Z,99677.78
2023-04-30T08:02:02.875Z,99672.53
2023-04-30T08:04:30.701Z,99676.09
2023-04-30T08:06:58.187Z,99676.94
2023-04-30T08:09:25.645Z,99678.63
2023-04-30T08:11:53.411Z,99681.09
2023-04-30T08:14:21.612Z,99672.69
2023-04-30T08:16:49.039Z,99667.06
2023-04-30T08:19:17.973Z,99660.78
2023-04-30T08:21:45.650Z,99670.34
2023-04-30T08:24:13.122Z,99675.59
2023-04-30T08:26:40.777Z,99677.25
2023-04-30T08:29:11.262Z,99674.28
2023-04-30T08:31:38.759Z,99673.22
2023-04-30T08:34:06.771Z,99664.84
2023-04-30T08:36:34.191Z,99657.53
2023-04-30T08:39:02.189Z,99660.00
2023-04-30T08:41:32.912Z,99661.66
2023-04-30T08:44:01.671Z,99668.56
2023-04-30T08:46:31.019Z,99662.88
2023-04-30T08:48:58.833Z,99668.31
2023-04-30T08:51:26.426Z,99661.34
2023-04-30T08:53:55.080Z,99664.91
2023-04-30T08:56:25.274Z,99660.28
2023-04-30T08:58:52.789Z,99654.62
2023-04-30T09:01:20.185Z,99662.03
2023-04-30T09:03:48.182Z,99666.50
2023-04-30T09:06:16.924Z,99663.16
2023-04-30T09:08:48.406Z,99659.41
2023-04-30T09:11:28.945Z,99662.12
2023-04-30T09:14:00.568Z,99655.59
2023-04-30T09:16:48.042Z,99658.53
2023-04-30T09:19:27.931Z,99656.44
2023-04-30T09:21:55.507Z,99662.72
2023-04-30T09:24:23.250Z,99664.50
2023-04-30T09:26:50.844Z,99662.72
2023-04-30T09:29:18.706Z,99664.84
2023-04-30T09:31:47.289Z,99653.94
2023-04-30T09:34:15.353Z,99651.22
2023-04-30T09:36:55.397Z,99651.22
2023-04-30T09:39:22.848Z,99648.25
2023-04-30T09:41:51.440Z,99640.34
2023-04-30T09:44:28.619Z,99644.94
2023-04-30T09:46:57.766Z,99645.53
2023-04-30T09:49:26.082Z,99639.47
2023-04-30T09:51:54.675Z,99643.06
2023-04-30T09:54:27.928Z,99640.34
2023-04-30T09:56:58.862Z,99646.59
2023-04-30T09:59:33.031Z,99653.09
2023-04-30T10:02:01.291Z,99644.94
2023-04-30T10:04:36.683Z,99653.09
2023-04-30T10:07:23.019Z,99640.34
2023-04-30T10:09:55.807Z,99639.28
2023-04-30T10:12:29.996Z,99640.34
2023-04-30T10:14:59.971Z,99634.03
2023-04-30T10:17:28.437Z,99641.38
2023-04-30T10:19:57.909Z,99631.56
2023-04-30T10:22:25.651Z,99623.38
2023-04-30T10:24:53.876Z,99621.28
2023-04-30T10:27:21.350Z,99619.59
2023-04-30T10:29:49.190Z,99627.75
2023-04-30T10:32:16.809Z,99623.38
2023-04-30T10:35:07.416Z,99628.00
2023-04-30T10:37:38.570Z,99628.00
2023-04-30T10:40:09.153Z,99625.53
2023-04-30T10:42:37.042Z,99617.34
2023-04-30T10:45:04.739Z,99630.97
2023-04-30T10:47:32.243Z,99611.91
2023-04-30T10:50:09.625Z,99598.31
2023-04-30T10:52:37.940Z,99608.12
2023-04-30T10:55:07.516Z,99629.28
2023-04-30T10:57:42.811Z,99613.81
2023-04-30T11:00:10.466Z,99606.47
2023-04-30T11:02:45.855Z,99596.59
2023-04-30T11:05:18.099Z,99610.22
2023-04-30T11:07:52.433Z,99586.78
2023-04-30T11:10:25.092Z,99585.72
2023-04-30T11:12:53.983Z,99613.19
2023-04-30T11:15:25.638Z,99599.56
2023-04-30T11:17:56.779Z,99602.06
2023-04-30T11:20:25.538Z,99599.56
2023-04-30T11:23:12.588Z,99602.91
2023-04-30T11:25:46.932Z,99593.88
2023-04-30T11:28:18.886Z,99590.34
2023-04-30T11:30:52.691Z,99587.84
2023-04-30T11:33:20.632Z,99621.97
2023-04-30T11:35:55.712Z,99622.19
2023-04-30T11:38:30.691Z,99595.78
2023-04-30T11:40:58.551Z,99591.16
2023-04-30T11:43:26.832Z,99587.63
2023-04-30T11:46:09.416Z,99589.50
2023-04-30T11:49:03.819Z,99617.34
2023-04-30T11:51:31.485Z,99598.50
2023-04-30T11:53:59.138Z,99599.34
2023-04-30T11:56:27.629Z,99591.16
2023-04-30T11:58:56.092Z,99597.69
2023-04-30T12:01:27.204Z,99602.06
2023-04-30T12:03:55.997Z,99595.78
2023-04-30T12:06:28.344Z,99621.09
2023-04-30T12:09:01.600Z,99602.06
2023-04-30T12:11:29.775Z,99598.50
2023-04-30T12:14:10.855Z,99605.63
2023-04-30T12:16:49.406Z,99599.13
2023-04-30T12:19:18.625Z,99602.91
2023-04-30T12:21:47.277Z,99604.56
2023-04-30T12:24:15.306Z,99622.19
2023-04-30T12:26:43.137Z,99617.56
2023-04-30T12:29:17.900Z,99603.94
2023-04-30T12:31:45.795Z,99592.22
2023-04-30T12:34:14.093Z,99600.41
2023-04-30T12:36:44.308Z,99594.12
2023-04-30T12:39:13.177Z,99585.97
2023-04-30T12:41:44.349Z,99594.12
2023-04-30T12:44:22.195Z,99591.41
2023-04-30T12:46:50.467Z,99573.19
2023-04-30T12:49:30.955Z,99570.47
2023-04-30T12:52:07.545Z,99563.94
2023-04-30T12:54:36.177Z,99579.44
2023-04-30T12:57:10.881Z,99588.69
2023-04-30T12:59:59.475Z,99588.69
2023-04-30T13:02:32.089Z,99572.97
2023-04-30T13:04:59.987Z,99559.56
2023-04-30T13:07:27.404Z,99548.69
2023-04-30T13:09:55.106Z,99580.53
2023-04-30T13:12:22.976Z,99582.41
2023-04-30T13:14:50.414Z,99577.78
2023-04-30T13:17:17.866Z,99567.72
2023-04-30T13:19:45.556Z,99573.19
2023-04-30T13:22:13.439Z,99566.09
2023-04-30T13:24:40.938Z,99563.59
2023-04-30T13:27:08.677Z,99557.34
2023-04-30T13:29:36.097Z,99555.66
2023-04-30T13:32:04.229Z,99554.00
2023-04-30T13:34:31.978Z,99562.16
2023-04-30T13:36:59.536Z,99555.06
2023-04-30T13:39:27.003Z,99557.78
2023-04-30T13:41:54.655Z,99556.12
2023-04-30T13:44:22.328Z,99567.00
2023-04-30T13:46:50.150Z,99563.69
2023-04-30T13:49:17.986Z,99565.56
2023-04-30T13:51:45.448Z,99562.03
2023-04-30T13:54:12.855Z,99559.53
2023-04-30T13:56:40.569Z,99566.87
2023-04-30T13:59:08.241Z,99564.16
2023-04-30T14:01:35.651Z,99566.87
2023-04-30T14:04:03.403Z,99560.81
2023-04-30T14:06:31.141Z,99557.25
2023-04-30T14:08:59.763Z,99563.78
2023-04-30T14:11:27.622Z,99560.00
2023-04-30T14:13:55.332Z,99558.34
2023-04-30T14:16:22.837Z,99555.84
2023-04-30T14:18:50.592Z,99546.63
2023-04-30T14:21:17.984Z,99549.56
2023-04-30T14:23:46.632Z,99554.16
2023-04-30T14:26:14.702Z,99552.28
2023-04-30T14:28:42.158Z,99552.50
2023-04-30T14:31:10.606Z,99553.34
2023-04-30T14:33:38.555Z,99551.69
2023-04-30T14:36:06.872Z,99550.84
2023-04-30T14:38:34.313Z,99546.47
2023-04-30T14:41:01.990Z,99556.31
2023-04-30T14:43:29.388Z,99543.75
2023-04-30T14:45:56.906Z,99549.22
2023-04-30T14:48:24.652Z,99552.97
2023-04-30T14:50:52.297Z,99551.31
2023-04-30T14:53:19.691Z,99552.97
2023-04-30T14:55:47.658Z,99556.75
2023-04-30T14:58:15.309Z,99565.97
2023-04-30T15:00:42.793Z,99557.81
2023-04-30T15:03:10.961Z,99564.09
2023-04-30T15:05:38.431Z,99563.25
2023-04-30T15:08:06.689Z,99570.59
2023-04-30T15:10:34.475Z,99559.72
2023-04-30T15:13:03.288Z,99562.66
2023-04-30T15:15:31.214Z,99559.94
2023-04-30T15:17:58.936Z,99556.16
2023-04-30T15:20:26.424Z,99561.81
2023-04-30T15:22:54.996Z,99568.13
2023-04-30T15:25:24.112Z,99561.81
2023-04-30T15:27:54.890Z,99569.16
2023-04-30T15:30:22.287Z,99564.53
2023-04-30T15:32:50.509Z,99572.50
2023-04-30T18:18:03.414Z,99689.16
2023-04-30T18:20:31.486Z,99692.97
2023-04-30T18:22:59.031Z,99699.22
2023-04-30T18:25:28.166Z,99699.62
2023-04-30T18:27:56.110Z,99700.00
2023-04-30T18:30:23.619Z,99705.81
2023-04-30T18:32:51.396Z,99706.41
2023-04-30T18:35:19.301Z,99714.59
2023-04-30T18:37:46.731Z,99712.47
2023-04-30T18:40:17.506Z,99708.69
2023-04-30T18:42:45.894Z,99719.59
2023-04-30T18:45:14.997Z,99719.59
2023-04-30T18:47:43.011Z,99718.50
2023-04-30T18:50:15.384Z,99736.31
2023-04-30T18:52:43.226Z,99739.84
2023-04-30T18:55:14.277Z,99740.88
2023-04-30T18:57:43.305Z,99752.41
2023-04-30T19:00:14.165Z,99747.53
2023-04-30T19:02:43.504Z,99749.00
2023-04-30T19:05:14.592Z,99750.88
2023-04-30T19:07:45.336Z,99751.47
2023-04-30T19:10:13.216Z,99756.69
2023-04-30T19:12:41.732Z,99756.69
2023-04-30T19:15:12.183Z,99752.53
2023-04-30T19:17:40.769Z,99765.91
2023-04-30T19:20:09.444Z,99771.38
2023-04-30T19:22:37.853Z,99773.88
2023-04-30T19:25:06.563Z,99769.84
2023-04-30T19:27:34.509Z,99766.53
2023-04-30T19:30:02.289Z,99766.53
2023-04-30T19:32:30.592Z,99765.25
2023-04-30T19:34:59.495Z,99765.47
2023-04-30T19:37:27.937Z,99759.78
2023-04-30T19:39:56.501Z,99769.84
2023-04-30T19:42:24.860Z,99761.69
2023-04-30T19:44:53.313Z,99780.16
2023-04-30T19:47:24.781Z,99781.59
2023-04-30T19:49:54.000Z,99777.78
2023-04-30T19:52:22.074Z,99785.97
2023-04-30T19:54:51.102Z,99785.97
2023-04-30T19:57:20.335Z,99778.84
2023-04-30T19:59:48.556Z,99776.97
2023-04-30T20:02:16.667Z,99780.50
2023-04-30T20:04:44.781Z,99775.06
2023-04-30T20:07:12.761Z,99779.69
2023-04-30T20:09:41.413Z,99778.66
2023-04-30T20:12:10.016Z,99777.78
2023-04-30T20:14:37.729Z,99783.03
2023-04-30T20:17:08.393Z,99787.66
2023-04-30T20:19:37.113Z,99793.69
2023-04-30T20:22:05.710Z,99792.88
2023-04-30T20:24:33.909Z,99783.88
2023-04-30T20:27:02.053Z,99794.13
2023-04-30T20:29:29.938Z,99796.28
2023-04-30T20:31:58.493Z,99793.53
2023-04-30T20:34:26.201Z,99798.41
2023-04-30T20:36:54.506Z,99797.53
2023-04-30T20:39:22.438Z,99803.00
2023-04-30T20:41:50.430Z,99809.28
2023-04-30T20:44:18.225Z,99807.59
2023-04-30T20:46:45.940Z,99814.12
2023-04-30T20:49:14.609Z,99814.12
2023-04-30T20:51:42.049Z,99817.91
2023-04-30T20:54:09.712Z,99823.34
2023-04-30T20:56:37.719Z,99817.91
2023-04-30T20:59:05.894Z,99821.69
2023-04-30T21:01:34.480Z,99820.88
2023-04-30T21:04:02.389Z,99830.94
2023-04-30T21:06:29.831Z,99833.84
2023-04-30T21:08:57.613Z,99841.19
2023-04-30T21:11:25.954Z,99839.53
2023-04-30T21:13:53.365Z,99841.19
2023-04-30T21:16:20.990Z,99842.28
2023-04-30T21:18:48.837Z,99842.50
2023-04-30T21:21:17.015Z,99846.88
2023-04-30T21:23:47.352Z,99860.72
2023-04-30T21:26:16.552Z,99862.59
2023-04-30T21:28:44.279Z,99865.56
2023-04-30T21:31:11.815Z,99872.66
2023-04-30T21:33:39.726Z,99880.25
2023-04-30T21:36:07.504Z,99885.44
2023-04-30T21:38:35.101Z,99893.84
2023-04-30T21:41:02.813Z,99903.09
2023-04-30T21:43:30.938Z,99895.75
2023-04-30T21:46:02.913Z,99903.09
2023-04-30T21:48:30.670Z,99902.47
2023-04-30T21:50:58.115Z,99906.00
2023-04-30T21:53:25.583Z,99907.91
2023-04-30T21:55:53.307Z,99905.19
2023-04-30T21:58:20.710Z,99900.81
2023-04-30T22:00:48.916Z,99912.53
2023-04-30T22:03:16.730Z,99915.25
2023-04-30T22:05:44.529Z,99910.88
2023-04-30T22:08:11.934Z,99919.03
2023-04-30T22:10:39.651Z,99918.19
2023-04-30T22:13:07.059Z,99916.50
2023-04-30T22:15:47.031Z,99919.22
2023-04-30T22:18:15.742Z,99916.50
2023-04-30T22:20:43.146Z,99917.56
2023-04-30T22:23:10.673Z,99922.19
2023-04-30T22:25:38.356Z,99920.28
2023-04-30T22:28:05.779Z,99925.13
2023-04-30T22:30:33.163Z,99927.88
2023-04-30T22:33:00.869Z,99925.13
2023-04-30T22:35:28.328Z,99923.69
2023-04-30T22:37:55.811Z,99926.22
2023-04-30T22:40:23.471Z,99928.06
2023-04-30T22:42:50.944Z,99925.34
2023-04-30T22:45:18.493Z,99922.63
2023-04-30T22:47:46.183Z,99928.28
2023-04-30T22:50:13.616Z,99929.97
2023-04-30T22:52:41.040Z,99938.13
2023-04-30T22:55:08.850Z,99936.47
2023-04-30T22:57:36.605Z,99933.97
2023-04-30T23:00:05.009Z,99927.69
2023-04-30T23:02:32.742Z,99934.81
2023-04-30T23:05:00.113Z,99933.16
2023-04-30T23:07:27.606Z,99934.19
2023-04-30T23:09:55.510Z,99934.19
2023-04-30T23:12:23.231Z,99936.91
2023-04-30T23:14:50.976Z,99938.78
2023-04-30T23:17:18.861Z,99941.50
2023-04-30T23:19:46.367Z,99933.56
2023-04-30T23:22:13.775Z,99930.84
2023-04-30T23:24:41.455Z,99930.84
2023-04-30T23:27:08.972Z,99934.41
2023-04-30T23:29:36.647Z,99935.25
2023-04-30T23:32:04.674Z,99930.84
2023-04-30T23:34:32.296Z,99939.03
2023-04-30T23:36:59.762Z,99932.75
2023-04-30T23:39:27.419Z,99932.75
2023-04-30T23:41:54.965Z,99936.53
2023-04-30T23:44:22.344Z,99941.97
2023-04-30T23:46:51.104Z,99936.53
2023-04-30T23:49:18.889Z,99933.81
2023-04-30T23:51:46.518Z,99938.19
2023-04-30T23:54:14.309Z,99935.47
2023-04-30T23:56:41.751Z,99936.53
2023-04-30T23:59:10.240Z,99934.66
